createdAt,value
2022-10-17T00:01:06.418Z,10.98
2022-10-17T00:03:36.093Z,10.98
2022-10-17T00:06:12.798Z,10.97
2022-10-17T00:08:43.963Z,10.99
2022-10-17T00:11:24.156Z,11.02
2022-10-17T00:13:56.515Z,11.04
2022-10-17T00:16:27.751Z,11.10
2022-10-17T00:18:55.420Z,11.16
2022-10-17T00:21:25.768Z,11.18
2022-10-17T00:23:54.054Z,11.17
2022-10-17T00:26:23.162Z,11.14
2022-10-17T00:28:53.401Z,11.09
2022-10-17T00:31:24.496Z,11.05
2022-10-17T00:33:53.373Z,10.99
2022-10-17T00:36:26.463Z,10.94
2022-10-17T00:38:59.622Z,10.90
2022-10-17T00:41:33.101Z,10.87
2022-10-17T00:44:30.678Z,10.86
2022-10-17T00:47:13.978Z,10.84
2022-10-17T00:49:41.599Z,10.82
2022-10-17T00:52:22.394Z,10.83
2022-10-17T00:55:08.413Z,10.82
2022-10-17T00:57:36.263Z,10.81
2022-10-17T01:00:10.188Z,10.82
2022-10-17T01:02:38.001Z,10.83
2022-10-17T01:05:07.783Z,10.85
2022-10-17T01:07:38.595Z,10.85
2022-10-17T01:10:07.969Z,10.84
2022-10-17T01:13:24.461Z,10.81
2022-10-17T01:16:20.151Z,10.85
2022-10-17T01:19:30.214Z,10.89
2022-10-17T01:22:37.991Z,10.92
2022-10-17T01:25:52.526Z,10.94
2022-10-17T01:29:03.120Z,10.91
2022-10-17T01:31:44.671Z,10.86
2022-10-17T01:34:44.365Z,10.76
2022-10-17T01:41:03.110Z,10.65
2022-10-17T01:44:00.894Z,10.62
2022-10-17T01:46:39.107Z,10.61
2022-10-17T01:49:17.282Z,10.56
2022-10-17T01:52:00.914Z,10.53
2022-10-17T01:54:48.290Z,10.48
2022-10-17T01:57:31.338Z,10.44
2022-10-17T01:59:59.838Z,10.42
2022-10-17T02:02:28.920Z,10.39
2022-10-17T02:04:57.925Z,10.40
2022-10-17T02:07:25.140Z,10.37
2022-10-17T02:09:52.667Z,10.36
2022-10-17T02:12:25.575Z,10.35
2022-10-17T02:15:18.750Z,10.31
2022-10-17T02:18:33.878Z,10.30
2022-10-17T02:21:23.123Z,10.28
2022-10-17T02:24:01.942Z,10.31
2022-10-17T02:26:53.527Z,10.31
2022-10-17T02:29:36.778Z,10.32
2022-10-17T02:32:12.260Z,10.34
2022-10-17T02:34:50.821Z,10.32
2022-10-17T02:37:28.922Z,10.31
2022-10-17T02:40:01.650Z,10.30
2022-10-17T02:42:32.304Z,10.28
2022-10-17T02:45:04.160Z,10.27
2022-10-17T02:48:14.695Z,10.30
2022-10-17T02:51:33.625Z,10.30
2022-10-17T02:54:28.054Z,10.37
2022-10-17T02:57:15.763Z,10.47
2022-10-17T02:59:47.886Z,10.50
2022-10-17T03:02:15.175Z,10.54
2022-10-17T03:04:47.848Z,10.58
2022-10-17T03:07:14.844Z,10.67
2022-10-17T03:09:41.859Z,10.71
2022-10-17T03:12:12.104Z,10.76
2022-10-17T03:14:39.288Z,10.85
2022-10-17T03:17:06.570Z,10.91
2022-10-17T03:19:33.501Z,10.96
2022-10-17T03:22:00.504Z,11.05
2022-10-17T03:24:27.507Z,11.08
2022-10-17T03:26:54.513Z,11.11
2022-10-17T03:29:21.509Z,11.18
2022-10-17T03:31:48.441Z,11.23
2022-10-17T03:34:17.782Z,11.27
2022-10-17T03:36:46.203Z,11.28
2022-10-17T03:39:13.509Z,11.30
2022-10-17T03:41:40.557Z,11.36
2022-10-17T03:44:07.699Z,11.47
2022-10-17T03:46:34.816Z,11.48
2022-10-17T03:49:01.842Z,11.46
2022-10-17T03:51:28.962Z,11.49
2022-10-17T03:53:56.058Z,11.48
2022-10-17T03:56:26.629Z,11.47
2022-10-17T03:58:55.762Z,11.47
2022-10-17T04:01:23.803Z,11.50
2022-10-17T04:03:54.846Z,11.59
2022-10-17T04:06:23.366Z,11.62
2022-10-17T04:08:50.708Z,11.59
2022-10-17T04:11:21.796Z,11.57
2022-10-17T04:13:55.313Z,11.56
2022-10-17T04:16:23.868Z,11.52
2022-10-17T04:18:58.555Z,11.49
2022-10-17T04:21:29.284Z,11.44
2022-10-17T04:24:00.738Z,11.45
2022-10-17T04:26:28.177Z,11.45
2022-10-17T04:28:55.257Z,11.43
2022-10-17T04:31:22.829Z,11.39
2022-10-17T04:33:50.933Z,11.36
2022-10-17T04:36:20.799Z,11.36
2022-10-17T04:38:47.789Z,11.34
2022-10-17T04:41:18.918Z,11.37
2022-10-17T04:43:50.114Z,11.31
2022-10-17T04:46:18.675Z,11.28
2022-10-17T04:48:45.879Z,11.25
2022-10-17T04:51:21.778Z,11.17
2022-10-17T04:53:51.414Z,11.08
2022-10-17T04:56:25.196Z,11.09
2022-10-17T04:58:52.960Z,11.08
2022-10-17T05:01:24.536Z,11.08
2022-10-17T05:03:53.059Z,11.08
2022-10-17T05:06:28.375Z,11.00
2022-10-17T05:08:56.565Z,10.94
2022-10-17T05:11:29.931Z,10.92
2022-10-17T05:14:02.121Z,10.93
2022-10-17T05:16:30.948Z,10.93
2022-10-17T05:18:59.986Z,10.90
2022-10-17T05:21:30.341Z,10.89
2022-10-17T05:23:58.262Z,10.88
2022-10-17T05:26:26.885Z,10.87
2022-10-17T05:28:54.816Z,10.88
2022-10-17T05:31:21.759Z,10.88
2022-10-17T05:33:48.789Z,10.90
2022-10-17T05:36:15.771Z,10.88
2022-10-17T05:38:42.669Z,10.85
2022-10-17T05:41:10.944Z,10.84
2022-10-17T05:43:37.924Z,10.84
2022-10-17T05:46:07.165Z,10.86
2022-10-17T05:48:35.683Z,10.92
2022-10-17T05:51:08.875Z,11.01
2022-10-17T05:53:40.818Z,11.06
2022-10-17T05:56:12.851Z,11.11
2022-10-17T05:58:50.444Z,11.15
2022-10-17T06:01:18.794Z,11.20
2022-10-17T06:03:45.727Z,11.20
2022-10-17T06:06:15.683Z,11.23
2022-10-17T06:08:44.242Z,11.23
2022-10-17T06:11:13.030Z,11.26
2022-10-17T06:13:41.195Z,11.28
2022-10-17T06:16:08.658Z,11.32
2022-10-17T06:18:35.650Z,11.35
2022-10-17T06:21:11.196Z,11.39
2022-10-17T06:23:38.491Z,11.44
2022-10-17T06:26:10.146Z,11.45
2022-10-17T06:28:37.644Z,11.48
2022-10-17T06:31:11.128Z,11.56
2022-10-17T06:33:39.470Z,11.58
2022-10-17T06:36:10.363Z,11.61
2022-10-17T06:38:37.586Z,11.64
2022-10-17T06:41:19.074Z,11.69
2022-10-17T06:43:47.515Z,11.76
2022-10-17T06:46:19.009Z,11.79
2022-10-17T06:48:46.234Z,11.90
2022-10-17T06:51:13.446Z,11.96
2022-10-17T06:53:41.010Z,12.02
2022-10-17T06:56:10.480Z,12.10
2022-10-17T06:58:40.467Z,12.17
2022-10-17T07:01:12.951Z,12.21
2022-10-17T07:03:41.675Z,12.26
2022-10-17T07:06:10.845Z,12.38
2022-10-17T07:08:38.225Z,12.49
2022-10-17T07:11:21.655Z,12.72
2022-10-17T07:13:50.369Z,12.88
2022-10-17T07:16:17.792Z,12.98
2022-10-17T07:18:44.742Z,13.04
2022-10-17T07:21:11.702Z,13.17
2022-10-17T07:23:39.928Z,13.22
2022-10-17T07:26:13.986Z,13.34
2022-10-17T07:28:46.754Z,13.41
2022-10-17T07:31:19.376Z,13.57
2022-10-17T07:36:34.235Z,13.99
2022-10-17T07:39:01.138Z,14.17
2022-10-17T07:41:28.099Z,14.38
2022-10-17T07:43:56.077Z,14.60
2022-10-17T07:46:22.997Z,14.76
2022-10-17T07:48:50.070Z,14.85
2022-10-17T07:51:18.450Z,14.99
2022-10-17T07:53:48.691Z,15.12
2022-10-17T07:56:16.371Z,15.28
2022-10-17T07:58:43.532Z,15.40
2022-10-17T08:01:15.607Z,15.57
2022-10-17T08:03:46.553Z,15.70
2022-10-17T08:06:14.400Z,15.85
2022-10-17T08:08:42.834Z,15.92
2022-10-17T08:11:14.381Z,16.01
2022-10-17T08:13:42.424Z,16.09
2022-10-17T08:16:13.638Z,16.19
2022-10-17T08:18:43.526Z,16.34
2022-10-17T08:21:13.497Z,16.54
2022-10-17T08:23:41.352Z,16.78
2022-10-17T08:26:10.982Z,16.95
2022-10-17T08:28:40.576Z,17.03
2022-10-17T08:31:13.074Z,17.06
2022-10-17T08:33:41.582Z,17.28
2022-10-17T08:36:12.279Z,17.46
2022-10-17T08:38:43.792Z,17.71
2022-10-17T08:41:44.320Z,18.00
2022-10-17T08:44:29.113Z,18.21
2022-10-17T08:47:03.932Z,18.28
2022-10-17T08:49:54.409Z,18.33
2022-10-17T08:52:35.684Z,18.42
2022-10-17T08:55:02.756Z,18.37
2022-10-17T08:57:30.059Z,18.46
2022-10-17T08:59:57.930Z,18.47
2022-10-17T09:02:44.459Z,18.44
2022-10-17T09:05:50.561Z,18.62
2022-10-17T09:08:38.553Z,18.56
2022-10-17T09:11:41.965Z,18.70
2022-10-17T09:14:45.368Z,18.70
2022-10-17T09:17:52.577Z,18.76
2022-10-17T09:20:44.423Z,18.81
2022-10-17T09:23:24.306Z,18.67
2022-10-17T09:26:00.109Z,18.80
2022-10-17T09:28:37.152Z,18.94
2022-10-17T09:31:10.652Z,18.82
2022-10-17T09:33:54.677Z,19.00
2022-10-17T09:36:27.303Z,19.29
2022-10-17T09:39:01.117Z,19.44
2022-10-17T09:41:46.422Z,19.64
2022-10-17T09:44:47.632Z,19.62
2022-10-17T09:47:42.648Z,19.81
2022-10-17T09:50:30.396Z,19.92
2022-10-17T09:53:14.920Z,20.11
2022-10-17T09:55:55.616Z,20.39
2022-10-17T09:58:24.117Z,20.56
2022-10-17T10:00:51.106Z,20.79
2022-10-17T10:03:26.409Z,21.00
2022-10-17T10:06:15.713Z,21.13
2022-10-17T10:09:00.540Z,21.11
2022-10-17T10:11:55.757Z,21.34
2022-10-17T10:14:24.304Z,21.54
2022-10-17T10:16:55.821Z,21.77
2022-10-17T10:19:37.696Z,21.88
2022-10-17T10:22:19.506Z,22.04
2022-10-17T10:25:10.671Z,21.97
2022-10-17T10:27:44.731Z,21.83
2022-10-17T10:30:32.819Z,21.62
2022-10-17T10:33:01.835Z,21.53
2022-10-17T10:35:37.649Z,21.54
2022-10-17T10:38:17.475Z,21.51
2022-10-17T10:40:55.650Z,21.63
2022-10-17T10:43:47.685Z,21.75
2022-10-17T10:46:27.626Z,21.84
2022-10-17T10:49:29.876Z,21.77
2022-10-17T10:52:05.866Z,21.90
2022-10-17T10:55:25.093Z,21.84
2022-10-17T10:58:20.508Z,21.82
2022-10-17T11:00:51.646Z,22.13
2022-10-17T11:03:59.831Z,22.12
2022-10-17T11:06:37.510Z,22.31
2022-10-17T11:09:32.954Z,22.20
2022-10-17T11:12:28.962Z,22.10
2022-10-17T11:15:30.049Z,21.96
2022-10-17T11:18:28.863Z,22.10
2022-10-17T11:21:29.087Z,22.27
2022-10-17T11:24:34.189Z,22.35
2022-10-17T11:27:06.478Z,22.29
2022-10-17T11:29:41.367Z,22.22
2022-10-17T11:32:43.940Z,22.15
2022-10-17T11:35:32.353Z,22.21
2022-10-17T11:38:43.487Z,22.34
2022-10-17T11:41:39.782Z,22.31
2022-10-17T11:44:40.375Z,22.26
2022-10-17T11:47:51.651Z,22.39
2022-10-17T11:53:34.680Z,22.45
2022-10-17T11:56:07.592Z,22.59
2022-10-17T11:58:54.392Z,22.62
2022-10-17T12:01:45.162Z,22.64
2022-10-17T12:04:52.882Z,22.70
2022-10-17T12:07:53.068Z,22.70
2022-10-17T12:11:01.152Z,22.77
2022-10-17T12:13:28.467Z,22.75
2022-10-17T12:16:19.716Z,22.72
2022-10-17T12:19:02.668Z,22.74
2022-10-17T12:22:21.459Z,22.90
2022-10-17T12:25:04.463Z,23.11
2022-10-17T12:27:46.396Z,23.12
2022-10-17T12:30:13.610Z,23.14
2022-10-17T12:33:22.503Z,23.07
2022-10-17T12:36:32.153Z,23.13
2022-10-17T12:39:01.883Z,23.17
2022-10-17T12:41:40.784Z,23.15
2022-10-17T12:44:13.972Z,23.04
2022-10-17T12:47:29.439Z,22.98
2022-10-17T12:49:56.872Z,22.90
2022-10-17T12:52:32.861Z,22.92
2022-10-17T12:55:12.084Z,22.90
2022-10-17T12:57:56.919Z,22.93
2022-10-17T13:01:18.898Z,23.02
2022-10-17T13:03:50.557Z,23.14
2022-10-17T13:06:28.717Z,23.17
2022-10-17T13:09:21.699Z,23.13
2022-10-17T13:11:54.122Z,23.06
2022-10-17T13:14:25.689Z,22.89
2022-10-17T13:17:01.136Z,22.91
2022-10-17T13:19:45.704Z,23.11
2022-10-17T13:22:22.807Z,23.17
2022-10-17T13:24:54.219Z,23.27
2022-10-17T13:27:34.063Z,23.23
2022-10-17T13:30:30.993Z,23.24
2022-10-17T13:33:01.913Z,23.22
2022-10-17T13:38:32.687Z,23.26
2022-10-17T13:41:30.532Z,23.33
2022-10-17T13:43:54.564Z,23.29
2022-10-17T13:46:39.237Z,23.20
2022-10-17T13:49:28.133Z,23.07
2022-10-17T13:51:59.195Z,23.10
2022-10-17T13:54:36.624Z,23.09
2022-10-17T13:57:17.440Z,23.10
2022-10-17T13:59:49.924Z,23.18
2022-10-17T14:02:29.867Z,23.09
2022-10-17T14:05:21.300Z,23.19
2022-10-17T14:08:11.816Z,23.25
2022-10-17T14:10:44.084Z,23.32
2022-10-17T14:13:35.948Z,23.37
2022-10-17T14:16:04.967Z,23.39
2022-10-17T14:18:38.122Z,23.39
2022-10-17T14:24:34.496Z,23.27
2022-10-17T14:27:01.534Z,23.06
2022-10-17T14:29:51.808Z,22.99
2022-10-17T14:32:22.327Z,22.91
2022-10-17T14:35:10.577Z,22.80
2022-10-17T14:37:53.202Z,22.72
2022-10-17T14:40:26.010Z,22.63
2022-10-17T14:43:00.126Z,22.54
2022-10-17T14:45:40.077Z,22.28
2022-10-17T14:48:21.836Z,22.04
2022-10-17T14:51:12.887Z,21.95
2022-10-17T14:53:43.524Z,21.91
2022-10-17T14:56:52.666Z,21.70
2022-10-17T14:59:51.621Z,21.57
2022-10-17T15:02:15.657Z,21.40
2022-10-17T15:04:42.844Z,21.34
2022-10-17T15:07:18.382Z,21.26
2022-10-17T15:09:53.931Z,21.16
2022-10-17T15:12:26.022Z,21.00
2022-10-17T15:14:54.129Z,20.87
2022-10-17T15:17:31.598Z,20.79
2022-10-17T15:19:59.227Z,20.59
2022-10-17T15:22:26.558Z,20.47
2022-10-17T15:24:53.708Z,20.37
2022-10-17T15:27:26.382Z,20.29
2022-10-17T15:29:53.520Z,20.22
2022-10-17T15:32:20.615Z,20.09
2022-10-17T15:34:47.673Z,19.99
2022-10-17T15:37:25.326Z,19.88
2022-10-17T15:39:55.659Z,19.71
2022-10-17T15:42:32.538Z,19.58
2022-10-17T15:44:59.671Z,19.48
2022-10-17T15:47:36.184Z,19.33
2022-10-17T15:50:06.691Z,19.21
2022-10-17T15:52:33.599Z,19.12
2022-10-17T15:55:04.145Z,19.00
2022-10-17T15:57:40.429Z,18.83
2022-10-17T16:00:24.046Z,18.67
2022-10-17T16:02:51.594Z,18.49
2022-10-17T16:05:26.218Z,18.31
2022-10-17T16:07:55.637Z,18.19
2022-10-17T16:10:25.591Z,18.07
2022-10-17T16:12:53.171Z,17.87
2022-10-17T16:15:28.258Z,17.69
2022-10-17T16:18:00.467Z,17.55
2022-10-17T16:20:30.008Z,17.47
2022-10-17T16:23:00.519Z,17.38
2022-10-17T16:25:31.025Z,17.26
2022-10-17T16:28:01.734Z,17.19
2022-10-17T16:30:32.110Z,17.07
2022-10-17T16:32:59.265Z,17.03
2022-10-17T16:35:33.328Z,16.91
2022-10-17T16:38:06.438Z,16.79
2022-10-17T16:40:34.647Z,16.71
2022-10-17T16:43:01.633Z,16.65
2022-10-17T16:45:28.847Z,16.61
2022-10-17T16:47:55.889Z,16.56
2022-10-17T16:50:22.983Z,16.45
2022-10-17T16:52:53.141Z,16.45
2022-10-17T16:55:20.582Z,16.45
2022-10-17T16:57:49.108Z,16.40
2022-10-17T17:00:17.775Z,16.30
2022-10-17T17:02:48.457Z,16.22
2022-10-17T17:05:16.094Z,16.17
2022-10-17T17:07:43.206Z,16.12
2022-10-17T17:10:10.301Z,16.00
2022-10-17T17:12:37.617Z,15.95
2022-10-17T17:15:06.221Z,15.85
2022-10-17T17:17:49.310Z,15.81
2022-10-17T17:20:18.412Z,15.79
2022-10-17T17:22:45.411Z,15.80
2022-10-17T17:25:12.458Z,15.78
2022-10-17T17:27:39.387Z,15.75
2022-10-17T17:30:07.778Z,15.72
2022-10-17T17:32:34.703Z,15.66
2022-10-17T17:35:01.863Z,15.64
2022-10-17T17:37:29.242Z,15.58
2022-10-17T17:39:56.400Z,15.52
2022-10-17T17:42:24.058Z,15.46
2022-10-17T17:44:51.147Z,15.41
2022-10-17T17:47:18.664Z,15.34
2022-10-17T17:49:45.732Z,15.24
2022-10-17T17:52:12.699Z,15.17
2022-10-17T17:54:40.968Z,15.13
2022-10-17T17:57:08.237Z,15.11
2022-10-17T17:59:35.438Z,15.09
2022-10-17T18:02:05.384Z,14.99
2022-10-17T18:04:32.442Z,14.81
2022-10-17T18:06:59.365Z,14.81
2022-10-17T18:09:26.373Z,14.79
2022-10-17T18:11:53.472Z,14.72
2022-10-17T18:14:23.859Z,14.76
2022-10-17T18:16:51.037Z,14.73
2022-10-17T18:19:18.060Z,14.73
2022-10-17T18:21:45.160Z,14.77
2022-10-17T18:24:12.131Z,14.77
2022-10-17T18:26:39.098Z,14.72
2022-10-17T18:29:06.338Z,14.69
2022-10-17T18:31:36.004Z,14.65
2022-10-17T18:34:05.792Z,14.60
2022-10-17T18:36:35.432Z,14.56
2022-10-17T18:39:03.504Z,14.46
2022-10-17T18:41:32.184Z,14.41
2022-10-17T18:43:59.546Z,14.39
2022-10-17T18:46:40.759Z,14.38
2022-10-17T18:49:14.111Z,14.35
2022-10-17T18:51:42.746Z,14.35
2022-10-17T18:54:17.260Z,14.32
2022-10-17T18:56:45.074Z,14.26
2022-10-17T18:59:11.975Z,14.24
2022-10-17T19:01:39.169Z,14.11
2022-10-17T19:04:06.307Z,14.05
2022-10-17T19:06:33.376Z,14.00
2022-10-17T19:09:05.705Z,13.96
2022-10-17T19:11:36.005Z,13.92
2022-10-17T19:14:13.841Z,13.90
2022-10-17T19:16:50.900Z,13.84
2022-10-17T19:19:22.759Z,13.84
2022-10-17T19:21:51.853Z,13.80
2022-10-17T19:24:26.786Z,13.79
2022-10-17T19:27:02.700Z,13.73
2022-10-17T19:29:33.983Z,13.73
2022-10-17T19:32:02.662Z,13.69
2022-10-17T19:34:29.882Z,13.68
2022-10-17T19:36:57.074Z,13.70
2022-10-17T19:39:25.210Z,13.72
2022-10-17T19:41:52.378Z,13.71
2022-10-17T19:44:19.681Z,13.71
2022-10-17T19:46:49.080Z,13.74
2022-10-17T19:49:16.646Z,13.71
2022-10-17T19:51:44.070Z,13.64
2022-10-17T19:54:11.282Z,13.64
2022-10-17T19:56:38.738Z,13.58
2022-10-17T19:59:08.478Z,13.55
2022-10-17T20:01:40.969Z,13.55
2022-10-17T20:04:11.510Z,13.54
2022-10-17T20:06:41.460Z,13.50
2022-10-17T20:09:16.677Z,13.50
2022-10-17T20:11:45.150Z,13.48
2022-10-17T20:14:12.136Z,13.44
2022-10-17T20:16:39.059Z,13.42
2022-10-17T20:19:13.616Z,13.40
2022-10-17T20:21:40.722Z,13.37
2022-10-17T20:24:13.304Z,13.35
2022-10-17T20:26:42.482Z,13.30
2022-10-17T20:29:19.839Z,13.27
2022-10-17T20:31:48.689Z,13.26
2022-10-17T20:34:22.511Z,13.26
2022-10-17T20:36:50.297Z,13.22
2022-10-17T20:39:20.717Z,13.21
2022-10-17T20:41:47.854Z,13.18
2022-10-17T20:44:15.214Z,13.17
2022-10-17T20:46:48.732Z,13.17
2022-10-17T20:49:27.559Z,13.17
2022-10-17T20:51:54.506Z,13.16
2022-10-17T20:54:22.396Z,13.17
2022-10-17T20:56:49.551Z,13.16
2022-10-17T20:59:18.288Z,13.10
2022-10-17T21:01:47.432Z,13.07
2022-10-17T21:04:44.944Z,13.00
2022-10-17T21:07:01.958Z,13.01
2022-10-17T21:09:28.977Z,13.01
2022-10-17T21:11:56.896Z,13.02
2022-10-17T21:14:25.749Z,13.04
2022-10-17T21:16:53.223Z,13.03
2022-10-17T21:19:21.866Z,12.99
2022-10-17T21:21:49.356Z,12.95
2022-10-17T21:24:19.240Z,12.89
2022-10-17T21:26:55.160Z,12.87
2022-10-17T21:29:23.858Z,12.84
2022-10-17T21:31:51.466Z,12.83
2022-10-17T21:34:24.672Z,12.81
2022-10-17T21:36:53.292Z,12.78
2022-10-17T21:39:22.036Z,12.80
2022-10-17T21:41:49.088Z,12.82
2022-10-17T21:44:24.158Z,12.85
2022-10-17T21:46:53.887Z,12.83
2022-10-17T21:49:24.949Z,12.85
2022-10-17T21:51:53.439Z,12.80
2022-10-17T21:54:23.584Z,12.77
2022-10-17T21:56:52.330Z,12.73
2022-10-17T21:59:19.315Z,12.66
2022-10-17T22:01:46.911Z,12.62
2022-10-17T22:04:18.684Z,12.59
2022-10-17T22:06:51.325Z,12.55
2022-10-17T22:09:26.549Z,12.56
2022-10-17T22:11:57.054Z,12.47
2022-10-17T22:14:27.543Z,12.40
2022-10-17T22:16:55.642Z,12.38
2022-10-17T22:19:26.943Z,12.34
2022-10-17T22:21:55.340Z,12.26
2022-10-17T22:24:23.801Z,12.24
2022-10-17T22:26:52.312Z,12.22
2022-10-17T22:29:20.263Z,12.21
2022-10-17T22:31:47.454Z,12.26
2022-10-17T22:34:17.927Z,12.30
2022-10-17T22:36:47.757Z,12.30
2022-10-17T22:39:14.983Z,12.33
2022-10-17T22:41:41.952Z,12.33
2022-10-17T22:44:08.939Z,12.33
2022-10-17T22:46:36.511Z,12.34
2022-10-17T22:49:04.025Z,12.34
2022-10-17T22:51:32.374Z,12.37
2022-10-17T22:53:59.272Z,12.36
2022-10-17T22:56:26.420Z,12.38
2022-10-17T22:58:53.920Z,12.39
2022-10-17T23:01:25.107Z,12.40
2022-10-17T23:03:53.400Z,12.40
2022-10-17T23:06:22.303Z,12.39
2022-10-17T23:08:49.876Z,12.36
2022-10-17T23:11:17.582Z,12.35
2022-10-17T23:13:44.758Z,12.34
2022-10-17T23:16:11.820Z,12.34
2022-10-17T23:18:39.851Z,12.38
2022-10-17T23:21:07.961Z,12.40
2022-10-17T23:23:36.029Z,12.41
2022-10-17T23:26:14.514Z,12.46
2022-10-17T23:28:43.437Z,12.46
2022-10-17T23:31:19.699Z,12.49
2022-10-17T23:33:49.812Z,12.48
2022-10-17T23:36:20.435Z,12.46
2022-10-17T23:38:49.142Z,12.45
2022-10-17T23:41:17.753Z,12.47
2022-10-17T23:43:44.774Z,12.48
2022-10-17T23:46:12.730Z,12.51
2022-10-17T23:48:40.832Z,12.52
2022-10-17T23:51:13.924Z,12.56
2022-10-17T23:53:41.241Z,12.61
2022-10-17T23:56:11.379Z,12.63
2022-10-17T23:58:39.591Z,12.66
